Time;durP1;ratioP1;P1;durP2;ratioP2;P2;SDS_P1;SDS_P2;PMS_P1;PMS_P2;Temp;Humidity;BMP_temperature;BMP_pressure;BME280_temperature;BME280_humidity;BME280_pressure;Samples;Min_cycle;Max_cycle;Signal;HPM_P1;HPM_P2
2022/08/16 00:02:07;;;;;;;;;;;20.60;67.60;;;;;;5127159;27;19950;-63
2022/08/16 00:04:34;;;;;;;;;;;20.50;67.70;;;;;;5123237;27;19973;-63
2022/08/16 00:07:02;;;;;;;;;;;20.50;67.70;;;;;;5126694;27;19927;-64
2022/08/16 00:09:30;;;;;;;;;;;20.60;67.50;;;;;;5130821;27;19965;-64
2022/08/16 00:11:57;;;;;;;;;;;20.60;67.60;;;;;;5128481;27;19927;-63
2022/08/16 00:14:25;;;;;;;;;;;20.50;67.70;;;;;;5129795;27;19923;-63
2022/08/16 00:16:52;;;;;;;;;;;20.50;67.80;;;;;;5129478;27;19923;-63
2022/08/16 00:19:20;;;;;;;;;;;20.50;67.90;;;;;;5130111;28;19919;-64
2022/08/16 00:21:47;;;;;;;;;;;20.50;67.80;;;;;;5126026;27;20006;-64
2022/08/16 00:24:16;;;;;;;;;;;20.40;68.00;;;;;;5121184;27;19927;-63
2022/08/16 00:26:43;;;;;;;;;;;20.40;68.10;;;;;;5128556;27;19926;-63
2022/08/16 00:29:10;;;;;;;;;;;20.40;68.20;;;;;;5128965;27;19919;-63
2022/08/16 00:31:37;;;;;;;;;;;20.30;68.40;;;;;;5125900;27;19920;-64
2022/08/16 00:34:04;;;;;;;;;;;20.30;68.60;;;;;;5126726;27;19923;-64
2022/08/16 00:36:31;;;;;;;;;;;20.20;68.70;;;;;;5130460;27;19927;-63
2022/08/16 00:38:57;;;;;;;;;;;20.20;68.70;;;;;;5128352;27;19936;-65
2022/08/16 00:41:26;;;;;;;;;;;20.20;68.80;;;;;;5131588;27;19923;-63
2022/08/16 00:43:53;;;;;;;;;;;20.20;68.70;;;;;;5132400;27;19946;-63
2022/08/16 00:46:21;;;;;;;;;;;20.10;68.90;;;;;;5129892;27;20291;-62
2022/08/16 00:48:49;;;;;;;;;;;20.10;68.80;;;;;;5125943;27;19923;-63
2022/08/16 00:51:17;;;;;;;;;;;20.20;68.80;;;;;;5118372;27;19960;-62
2022/08/16 00:53:44;;;;;;;;;;;20.20;68.90;;;;;;5136429;27;20368;-63
2022/08/16 00:56:12;;;;;;;;;;;20.10;69.00;;;;;;5121290;27;19920;-63
2022/08/16 00:58:43;;;;;;;;;;;20.10;69.00;;;;;;5119053;27;19919;-63
2022/08/16 01:01:10;;;;;;;;;;;20.10;69.20;;;;;;5127572;27;19923;-63
2022/08/16 01:03:38;;;;;;;;;;;20.00;69.30;;;;;;5133410;27;19919;-64
2022/08/16 01:06:05;;;;;;;;;;;20.00;69.40;;;;;;5125376;27;19931;-63
2022/08/16 01:08:33;;;;;;;;;;;20.00;69.40;;;;;;5131891;27;19961;-64
2022/08/16 01:11:00;;;;;;;;;;;19.90;69.50;;;;;;5132382;27;19926;-64
2022/08/16 01:13:28;;;;;;;;;;;19.90;69.60;;;;;;5128383;27;19919;-65
2022/08/16 01:15:57;;;;;;;;;;;19.90;69.70;;;;;;5132982;27;19934;-63
2022/08/16 01:18:25;;;;;;;;;;;19.90;69.70;;;;;;5126984;27;19927;-64
2022/08/16 01:20:55;;;;;;;;;;;19.90;69.80;;;;;;5130052;27;19920;-65
2022/08/16 01:23:27;;;;;;;;;;;19.90;69.90;;;;;;5126729;27;19919;-64
2022/08/16 01:25:56;;;;;;;;;;;19.70;70.10;;;;;;5132009;27;19926;-65
2022/08/16 01:28:25;;;;;;;;;;;19.80;70.20;;;;;;5131014;27;19949;-64
2022/08/16 01:30:53;;;;;;;;;;;19.70;70.40;;;;;;5131009;27;19927;-64
2022/08/16 01:33:21;;;;;;;;;;;19.70;70.50;;;;;;5132330;27;19920;-63
2022/08/16 01:35:52;;;;;;;;;;;19.70;70.40;;;;;;5131856;27;19926;-64
2022/08/16 01:38:21;;;;;;;;;;;19.60;70.70;;;;;;5124256;27;19969;-63
2022/08/16 01:40:51;;;;;;;;;;;19.60;70.80;;;;;;5125558;27;20360;-64
2022/08/16 01:43:19;;;;;;;;;;;19.60;70.80;;;;;;5126546;27;19926;-63
2022/08/16 01:45:46;;;;;;;;;;;19.60;70.80;;;;;;5130974;27;20364;-63
2022/08/16 01:48:14;;;;;;;;;;;19.60;70.90;;;;;;5131480;27;19919;-63
2022/08/16 01:50:42;;;;;;;;;;;19.50;71.00;;;;;;5130589;27;20046;-62
2022/08/16 01:53:09;;;;;;;;;;;19.50;71.10;;;;;;5114766;27;19989;-63
2022/08/16 01:55:56;;;;;;;;;;;19.40;71.10;;;;;;5132225;27;19945;-63
2022/08/16 01:58:25;;;;;;;;;;;19.40;71.10;;;;;;5126042;27;20270;-63
2022/08/16 02:00:52;;;;;;;;;;;19.40;71.10;;;;;;5128063;27;20019;-63
2022/08/16 02:03:18;;;;;;;;;;;19.40;71.00;;;;;;5132603;27;20010;-63
2022/08/16 02:05:46;;;;;;;;;;;19.30;71.00;;;;;;5130851;27;20337;-64
2022/08/16 02:08:12;;;;;;;;;;;19.30;71.00;;;;;;5130574;27;19924;-64
2022/08/16 02:10:40;;;;;;;;;;;19.30;71.10;;;;;;5132857;27;19942;-65
2022/08/16 02:13:07;;;;;;;;;;;19.30;71.10;;;;;;5132643;27;19924;-64
2022/08/16 02:15:36;;;;;;;;;;;19.30;71.20;;;;;;5128808;27;19926;-63
2022/08/16 02:18:03;;;;;;;;;;;19.30;71.40;;;;;;5127729;27;20012;-64
2022/08/16 02:20:36;;;;;;;;;;;19.20;71.50;;;;;;5134110;27;19923;-63
2022/08/16 02:23:03;;;;;;;;;;;19.20;71.50;;;;;;5131027;27;20357;-63
2022/08/16 02:25:30;;;;;;;;;;;19.20;71.50;;;;;;5130127;27;19926;-63
2022/08/16 02:27:57;;;;;;;;;;;19.20;71.50;;;;;;5132616;27;19919;-63
2022/08/16 02:30:26;;;;;;;;;;;19.20;71.50;;;;;;5128425;27;19920;-63
2022/08/16 02:32:54;;;;;;;;;;;19.10;71.60;;;;;;5126670;27;19942;-63
2022/08/16 02:35:23;;;;;;;;;;;19.10;71.60;;;;;;5132370;27;19923;-62
2022/08/16 02:37:50;;;;;;;;;;;19.10;71.70;;;;;;5133445;27;19931;-63
2022/08/16 02:40:18;;;;;;;;;;;19.00;71.80;;;;;;5131756;27;19919;-63
2022/08/16 02:42:44;;;;;;;;;;;19.00;71.90;;;;;;5127038;27;19923;-63
2022/08/16 02:45:12;;;;;;;;;;;18.90;71.90;;;;;;5131850;27;19925;-65
2022/08/16 02:47:39;;;;;;;;;;;18.90;71.90;;;;;;5125199;27;19923;-63
2022/08/16 02:50:08;;;;;;;;;;;18.90;72.00;;;;;;5133560;27;19923;-63
2022/08/16 02:52:35;;;;;;;;;;;18.90;72.00;;;;;;5119121;27;20368;-64
2022/08/16 02:55:05;;;;;;;;;;;18.90;72.00;;;;;;5131885;27;19919;-62
2022/08/16 02:57:32;;;;;;;;;;;18.90;72.10;;;;;;5129642;27;19947;-63
2022/08/16 02:59:59;;;;;;;;;;;18.80;72.20;;;;;;5128942;27;19973;-63
2022/08/16 03:02:26;;;;;;;;;;;18.90;72.20;;;;;;5123167;27;19923;-62
2022/08/16 03:04:53;;;;;;;;;;;18.80;72.40;;;;;;5131182;27;20013;-63
2022/08/16 03:07:23;;;;;;;;;;;18.80;72.40;;;;;;5130262;27;19920;-64
2022/08/16 03:09:50;;;;;;;;;;;18.70;72.50;;;;;;5129625;27;19919;-64
2022/08/16 03:12:21;;;;;;;;;;;18.70;72.50;;;;;;5128548;27;19930;-63
2022/08/16 03:14:48;;;;;;;;;;;18.70;72.50;;;;;;5127281;27;20320;-63
2022/08/16 03:17:18;;;;;;;;;;;18.70;72.40;;;;;;5128471;27;19920;-63
2022/08/16 03:19:45;;;;;;;;;;;18.70;72.40;;;;;;5129429;27;20368;-64
2022/08/16 03:22:12;;;;;;;;;;;18.70;72.60;;;;;;5129167;27;19923;-63
2022/08/16 03:24:41;;;;;;;;;;;18.70;72.60;;;;;;5128289;27;19919;-63
2022/08/16 03:27:09;;;;;;;;;;;18.70;72.70;;;;;;5126325;27;20376;-64
2022/08/16 03:29:35;;;;;;;;;;;18.70;72.80;;;;;;5127232;27;19931;-63
2022/08/16 03:32:04;;;;;;;;;;;18.60;72.90;;;;;;5128649;27;19919;-63
2022/08/16 03:34:32;;;;;;;;;;;18.60;73.10;;;;;;5124445;27;19919;-63
2022/08/16 03:36:59;;;;;;;;;;;18.60;73.10;;;;;;5129991;27;19923;-63
2022/08/16 03:39:26;;;;;;;;;;;18.60;73.10;;;;;;5131852;27;19927;-64
2022/08/16 03:41:54;;;;;;;;;;;18.60;73.10;;;;;;5125109;27;19953;-63
2022/08/16 03:44:21;;;;;;;;;;;18.60;73.20;;;;;;5129196;27;20327;-64
2022/08/16 03:46:48;;;;;;;;;;;18.60;73.20;;;;;;5127579;27;19919;-63
2022/08/16 03:49:16;;;;;;;;;;;18.50;73.20;;;;;;5129572;27;19924;-63
2022/08/16 03:51:46;;;;;;;;;;;18.50;73.20;;;;;;5130842;27;19919;-63
2022/08/16 03:54:20;;;;;;;;;;;18.50;73.20;;;;;;5130463;27;20280;-65
2022/08/16 03:56:47;;;;;;;;;;;18.40;73.40;;;;;;5126975;27;19926;-63
2022/08/16 03:59:15;;;;;;;;;;;18.40;73.40;;;;;;5129755;27;19919;-62
2022/08/16 04:01:48;;;;;;;;;;;18.40;73.40;;;;;;5124052;27;19930;-63
2022/08/16 04:04:15;;;;;;;;;;;18.40;73.40;;;;;;5130679;27;19926;-63
2022/08/16 04:06:42;;;;;;;;;;;18.40;73.30;;;;;;5125053;27;19962;-63
2022/08/16 04:09:11;;;;;;;;;;;18.30;73.30;;;;;;5123062;27;19930;-63
2022/08/16 04:11:38;;;;;;;;;;;18.30;73.20;;;;;;5128736;27;19949;-63
2022/08/16 04:14:05;;;;;;;;;;;18.30;73.20;;;;;;5127716;27;19954;-64
2022/08/16 04:16:36;;;;;;;;;;;18.30;73.20;;;;;;5127664;27;19926;-64
2022/08/16 04:19:24;;;;;;;;;;;18.30;73.20;;;;;;5127119;27;19942;-63
2022/08/16 04:21:52;;;;;;;;;;;18.30;73.20;;;;;;5130303;27;20406;-63
2022/08/16 04:24:23;;;;;;;;;;;18.30;73.30;;;;;;5125888;28;20387;-63
2022/08/16 04:26:50;;;;;;;;;;;18.30;73.50;;;;;;5128202;27;20331;-64
2022/08/16 04:29:17;;;;;;;;;;;18.20;73.60;;;;;;5133812;27;19928;-65
2022/08/16 04:31:46;;;;;;;;;;;18.20;73.60;;;;;;5130158;27;19926;-63
2022/08/16 04:34:13;;;;;;;;;;;18.20;73.70;;;;;;5134393;27;20376;-64
2022/08/16 04:36:41;;;;;;;;;;;18.20;73.70;;;;;;5134959;27;19958;-63
2022/08/16 04:39:08;;;;;;;;;;;18.20;73.80;;;;;;5131355;27;19996;-63
2022/08/16 04:41:35;;;;;;;;;;;18.20;73.90;;;;;;5134423;27;19923;-64
2022/08/16 04:44:02;;;;;;;;;;;18.20;73.80;;;;;;5133944;27;19919;-64
2022/08/16 04:46:28;;;;;;;;;;;18.10;73.80;;;;;;5133287;27;20038;-63
2022/08/16 04:48:57;;;;;;;;;;;18.20;73.60;;;;;;5127398;27;19920;-64
2022/08/16 04:51:23;;;;;;;;;;;18.20;73.70;;;;;;5125767;27;20002;-64
2022/08/16 04:53:51;;;;;;;;;;;18.20;73.70;;;;;;5130539;27;20000;-63
2022/08/16 04:56:18;;;;;;;;;;;18.10;73.80;;;;;;5128884;27;19951;-63
2022/08/16 04:58:45;;;;;;;;;;;18.10;73.90;;;;;;5130607;27;19926;-64
2022/08/16 05:01:12;;;;;;;;;;;18.10;73.80;;;;;;5126383;27;20007;-64
2022/08/16 05:03:39;;;;;;;;;;;18.10;73.90;;;;;;5149380;27;20287;-63
2022/08/16 05:06:07;;;;;;;;;;;18.10;73.80;;;;;;5132024;27;19919;-64
2022/08/16 05:08:34;;;;;;;;;;;18.20;73.80;;;;;;5128711;27;19966;-63
2022/08/16 05:11:21;;;;;;;;;;;18.20;73.90;;;;;;5128759;27;20207;-64
2022/08/16 05:13:49;;;;;;;;;;;18.20;74.10;;;;;;5128062;27;19923;-64
2022/08/16 05:16:21;;;;;;;;;;;18.20;74.00;;;;;;5127780;27;20144;-64
2022/08/16 05:18:52;;;;;;;;;;;18.20;74.00;;;;;;5128131;27;19919;-64
2022/08/16 05:21:21;;;;;;;;;;;18.20;74.00;;;;;;5129358;27;19928;-63
2022/08/16 05:23:52;;;;;;;;;;;18.20;74.00;;;;;;5131862;27;20014;-62
2022/08/16 05:26:19;;;;;;;;;;;18.30;74.00;;;;;;5133312;27;19946;-64
2022/08/16 05:28:46;;;;;;;;;;;18.20;74.30;;;;;;5132856;27;19923;-62
2022/08/16 05:31:14;;;;;;;;;;;18.30;74.00;;;;;;5127478;27;20257;-63
2022/08/16 05:33:41;;;;;;;;;;;18.30;74.10;;;;;;5133025;27;19923;-64
2022/08/16 05:36:08;;;;;;;;;;;18.30;74.20;;;;;;5129406;27;20177;-63
2022/08/16 05:38:43;;;;;;;;;;;18.30;74.40;;;;;;5141812;27;20004;-64
2022/08/16 05:41:13;;;;;;;;;;;18.30;74.40;;;;;;5131044;27;19926;-63
2022/08/16 05:43:42;;;;;;;;;;;18.30;74.60;;;;;;5132509;27;19925;-63
2022/08/16 05:46:10;;;;;;;;;;;18.30;74.60;;;;;;5128019;27;20331;-64
2022/08/16 05:48:36;;;;;;;;;;;18.40;74.20;;;;;;5131770;27;19920;-64
2022/08/16 05:51:07;;;;;;;;;;;18.40;74.10;;;;;;5133102;27;19968;-64
2022/08/16 05:53:34;;;;;;;;;;;18.40;74.10;;;;;;5126290;27;19925;-63
2022/08/16 05:56:08;;;;;;;;;;;18.50;74.10;;;;;;5133112;27;19927;-63
2022/08/16 05:58:38;;;;;;;;;;;18.50;74.10;;;;;;5130271;27;20224;-63
2022/08/16 06:01:06;;;;;;;;;;;18.50;74.20;;;;;;5129377;27;19923;-63
2022/08/16 06:03:33;;;;;;;;;;;18.60;74.20;;;;;;5127686;27;20456;-63
2022/08/16 06:06:01;;;;;;;;;;;18.50;74.50;;;;;;5131851;27;20281;-63
2022/08/16 06:08:31;;;;;;;;;;;18.60;74.10;;;;;;5131965;27;19923;-63
2022/08/16 06:10:58;;;;;;;;;;;18.60;74.20;;;;;;5132270;27;19933;-64
2022/08/16 06:13:26;;;;;;;;;;;18.60;74.20;;;;;;5129284;27;19924;-62
2022/08/16 06:15:53;;;;;;;;;;;18.70;74.00;;;;;;5130552;27;19963;-64
2022/08/16 06:18:20;;;;;;;;;;;18.70;74.30;;;;;;5132487;27;20055;-63
2022/08/16 06:20:48;;;;;;;;;;;18.80;74.10;;;;;;5129052;27;20242;-64
2022/08/16 06:23:19;;;;;;;;;;;18.90;73.90;;;;;;5131549;27;19923;-63
2022/08/16 06:25:57;;;;;;;;;;;18.90;73.90;;;;;;5129287;27;19992;-62
2022/08/16 06:28:27;;;;;;;;;;;18.90;74.10;;;;;;5137049;27;19920;-63
2022/08/16 06:30:54;;;;;;;;;;;19.00;74.10;;;;;;5127648;27;20441;-63
2022/08/16 06:33:21;;;;;;;;;;;19.00;74.00;;;;;;5128785;27;19926;-63
2022/08/16 06:35:49;;;;;;;;;;;19.10;73.80;;;;;;5127004;27;19926;-63
2022/08/16 06:38:16;;;;;;;;;;;19.20;73.50;;;;;;5129815;27;19967;-63
2022/08/16 06:40:43;;;;;;;;;;;19.30;73.70;;;;;;5129208;27;19965;-62
2022/08/16 06:43:10;;;;;;;;;;;19.40;73.40;;;;;;5127820;27;20023;-64
2022/08/16 06:45:47;;;;;;;;;;;19.60;73.10;;;;;;5122396;27;20372;-63
2022/08/16 06:48:20;;;;;;;;;;;19.70;72.90;;;;;;5130454;27;19923;-64
2022/08/16 06:50:49;;;;;;;;;;;19.80;72.60;;;;;;5129639;27;19919;-63
2022/08/16 06:53:16;;;;;;;;;;;19.90;72.40;;;;;;5129280;27;20418;-63
2022/08/16 06:55:55;;;;;;;;;;;20.10;72.30;;;;;;5122157;27;19945;-64
2022/08/16 06:58:23;;;;;;;;;;;20.20;72.40;;;;;;5125686;27;19985;-64
2022/08/16 07:01:00;;;;;;;;;;;20.30;72.20;;;;;;5125792;27;20019;-64
2022/08/16 07:03:29;;;;;;;;;;;20.40;72.20;;;;;;5128792;27;19931;-64
2022/08/16 07:05:57;;;;;;;;;;;20.50;71.90;;;;;;5131981;27;19923;-64
2022/08/16 07:08:30;;;;;;;;;;;20.60;72.00;;;;;;5131384;27;19923;-64
2022/08/16 07:10:58;;;;;;;;;;;20.70;71.90;;;;;;5130810;27;19964;-64
2022/08/16 07:13:29;;;;;;;;;;;20.90;71.80;;;;;;5129489;27;20548;-64
2022/08/16 07:15:55;;;;;;;;;;;21.00;71.70;;;;;;5126927;27;19972;-64
2022/08/16 07:18:27;;;;;;;;;;;21.10;71.50;;;;;;5122749;27;19919;-64
2022/08/16 07:20:56;;;;;;;;;;;21.30;71.80;;;;;;5130496;27;19919;-63
2022/08/16 07:23:23;;;;;;;;;;;21.30;71.60;;;;;;5131314;27;19943;-64
2022/08/16 07:25:55;;;;;;;;;;;21.50;71.50;;;;;;5124823;27;20381;-64
2022/08/16 07:28:23;;;;;;;;;;;21.60;71.10;;;;;;5131378;27;20391;-64
2022/08/16 07:30:50;;;;;;;;;;;21.80;70.80;;;;;;5131657;27;19930;-63
2022/08/16 07:33:36;;;;;;;;;;;21.90;70.50;;;;;;5129198;27;20006;-64
2022/08/16 07:36:03;;;;;;;;;;;22.10;70.60;;;;;;5130802;27;19961;-64
2022/08/16 07:38:32;;;;;;;;;;;22.20;70.10;;;;;;5131202;27;20338;-64
2022/08/16 07:41:00;;;;;;;;;;;22.30;69.50;;;;;;5125829;27;19934;-64
2022/08/16 07:43:27;;;;;;;;;;;22.40;69.40;;;;;;5132681;27;20317;-64
2022/08/16 07:45:55;;;;;;;;;;;22.50;69.30;;;;;;5124551;27;20622;-64
2022/08/16 07:48:22;;;;;;;;;;;22.60;69.10;;;;;;5132501;27;19935;-64
2022/08/16 07:50:54;;;;;;;;;;;22.70;68.70;;;;;;5127028;27;19927;-64
2022/08/16 07:53:21;;;;;;;;;;;22.90;68.40;;;;;;5125123;27;19960;-63
2022/08/16 07:55:49;;;;;;;;;;;23.00;67.90;;;;;;5127954;27;19919;-64
2022/08/16 07:58:24;;;;;;;;;;;23.20;67.80;;;;;;5126669;27;19969;-63
2022/08/16 08:00:51;;;;;;;;;;;23.30;67.20;;;;;;5128052;27;20375;-62
2022/08/16 08:03:18;;;;;;;;;;;23.40;66.60;;;;;;5119091;27;19970;-62
2022/08/16 08:05:46;;;;;;;;;;;23.50;66.50;;;;;;5129602;27;19977;-61
2022/08/16 08:08:14;;;;;;;;;;;23.60;66.00;;;;;;5124050;27;19923;-62
2022/08/16 08:10:41;;;;;;;;;;;23.70;65.00;;;;;;5129308;27;20413;-63
2022/08/16 08:13:08;;;;;;;;;;;23.80;64.80;;;;;;5128590;27;20403;-61
2022/08/16 08:15:35;;;;;;;;;;;23.80;64.50;;;;;;5129022;27;19919;-62
2022/08/16 08:18:02;;;;;;;;;;;23.90;64.00;;;;;;5119301;27;19931;-61
2022/08/16 08:20:33;;;;;;;;;;;24.00;64.10;;;;;;5130009;27;20000;-61
2022/08/16 08:23:00;;;;;;;;;;;24.10;63.50;;;;;;5130754;27;19930;-62
2022/08/16 08:25:35;;;;;;;;;;;24.20;63.90;;;;;;5127711;27;19923;-63
2022/08/16 08:28:02;;;;;;;;;;;24.30;62.90;;;;;;5120213;27;19920;-62
2022/08/16 08:30:28;;;;;;;;;;;24.40;62.70;;;;;;5128593;27;19926;-61
2022/08/16 08:32:56;;;;;;;;;;;24.60;62.10;;;;;;5126324;27;20334;-61
2022/08/16 08:35:23;;;;;;;;;;;24.70;62.40;;;;;;5120924;27;20406;-62
2022/08/16 08:37:50;;;;;;;;;;;24.80;61.50;;;;;;5122639;27;20786;-63
2022/08/16 08:40:17;;;;;;;;;;;24.90;60.90;;;;;;5127029;27;19927;-63
2022/08/16 08:42:46;;;;;;;;;;;25.00;60.60;;;;;;5119897;27;20010;-62
2022/08/16 08:45:14;;;;;;;;;;;25.10;60.00;;;;;;5129060;27;19927;-62
2022/08/16 08:47:43;;;;;;;;;;;25.10;60.10;;;;;;5130735;27;19938;-64
2022/08/16 08:50:10;;;;;;;;;;;25.20;59.40;;;;;;5129770;28;19930;-62
2022/08/16 08:52:37;;;;;;;;;;;25.30;59.30;;;;;;5130355;27;19927;-62
2022/08/16 08:55:08;;;;;;;;;;;25.30;58.90;;;;;;5129844;28;20322;-63
2022/08/16 08:57:35;;;;;;;;;;;25.40;59.10;;;;;;5126162;27;19919;-61
2022/08/16 09:00:22;;;;;;;;;;;25.50;58.60;;;;;;5125616;27;19926;-62
2022/08/16 09:02:50;;;;;;;;;;;25.50;58.60;;;;;;5117815;28;19924;-62
2022/08/16 09:05:19;;;;;;;;;;;25.40;57.80;;;;;;5129375;28;19923;-62
2022/08/16 09:07:47;;;;;;;;;;;25.30;58.20;;;;;;5128709;27;20004;-61
2022/08/16 09:10:14;;;;;;;;;;;25.30;58.30;;;;;;5123607;27;19924;-62
2022/08/16 09:12:41;;;;;;;;;;;25.40;58.00;;;;;;5123361;27;19940;-61
2022/08/16 09:15:10;;;;;;;;;;;25.60;57.60;;;;;;5133354;27;19919;-63
2022/08/16 09:17:38;;;;;;;;;;;25.70;57.30;;;;;;5129092;27;19927;-63
2022/08/16 09:20:06;;;;;;;;;;;25.90;57.00;;;;;;5134064;27;19923;-62
2022/08/16 09:22:33;;;;;;;;;;;26.00;56.00;;;;;;5133723;27;19923;-62
2022/08/16 09:25:00;;;;;;;;;;;26.10;56.00;;;;;;5135432;27;19930;-62
2022/08/16 09:27:28;;;;;;;;;;;26.20;54.90;;;;;;5133461;27;19954;-62
2022/08/16 09:29:55;;;;;;;;;;;26.30;54.80;;;;;;5133751;27;20464;-61
2022/08/16 09:32:22;;;;;;;;;;;26.40;54.70;;;;;;5133765;27;19965;-62
2022/08/16 09:34:50;;;;;;;;;;;26.50;53.80;;;;;;5137132;27;19925;-61
2022/08/16 09:37:17;;;;;;;;;;;26.50;54.20;;;;;;5129199;27;19926;-62
2022/08/16 09:39:44;;;;;;;;;;;26.60;53.90;;;;;;5134299;27;20030;-63
2022/08/16 09:42:13;;;;;;;;;;;26.50;53.90;;;;;;5125246;27;19928;-63
2022/08/16 09:44:40;;;;;;;;;;;26.60;53.60;;;;;;5132764;27;19931;-61
2022/08/16 09:47:08;;;;;;;;;;;26.50;53.70;;;;;;5126099;27;19927;-62
2022/08/16 09:49:34;;;;;;;;;;;26.50;53.80;;;;;;5126272;27;19919;-61
2022/08/16 09:52:03;;;;;;;;;;;26.40;53.40;;;;;;5133208;27;19927;-61
2022/08/16 09:54:30;;;;;;;;;;;26.40;53.70;;;;;;5129522;27;20362;-62
2022/08/16 09:56:57;;;;;;;;;;;26.30;53.60;;;;;;5132670;27;20323;-63
2022/08/16 09:59:24;;;;;;;;;;;26.40;53.20;;;;;;5132088;27;20300;-63
2022/08/16 10:01:51;;;;;;;;;;;26.60;52.80;;;;;;5128194;27;19927;-61
2022/08/16 10:04:18;;;;;;;;;;;26.80;52.40;;;;;;5131389;27;19923;-62
2022/08/16 10:06:45;;;;;;;;;;;26.90;52.20;;;;;;5130339;27;19927;-63
2022/08/16 10:09:15;;;;;;;;;;;27.00;51.70;;;;;;5131337;27;20014;-63
2022/08/16 10:14:29;;;;;;;;;;;27.10;51.80;;;;;;5127808;27;20028;-62
2022/08/16 10:16:56;;;;;;;;;;;27.20;51.50;;;;;;5131438;27;19923;-63
2022/08/16 10:19:23;;;;;;;;;;;27.10;51.50;;;;;;5126452;27;19919;-63
2022/08/16 10:21:50;;;;;;;;;;;27.20;51.50;;;;;;5131038;27;19919;-62
2022/08/16 10:24:18;;;;;;;;;;;27.10;51.60;;;;;;5136497;27;20350;-62
2022/08/16 10:26:45;;;;;;;;;;;27.00;51.70;;;;;;5131455;27;19964;-63
2022/08/16 10:29:12;;;;;;;;;;;27.00;51.70;;;;;;5132565;27;19923;-62
2022/08/16 10:31:39;;;;;;;;;;;27.00;51.80;;;;;;5132317;27;20287;-62
2022/08/16 10:34:06;;;;;;;;;;;26.90;51.80;;;;;;5130272;27;19919;-64
2022/08/16 10:36:33;;;;;;;;;;;27.00;51.70;;;;;;5132211;27;19919;-63
2022/08/16 10:39:00;;;;;;;;;;;27.20;51.60;;;;;;5131050;27;20361;-62
2022/08/16 10:41:28;;;;;;;;;;;27.30;51.10;;;;;;5129406;27;19920;-62
2022/08/16 10:43:54;;;;;;;;;;;27.20;50.70;;;;;;5133129;27;19920;-62
2022/08/16 10:46:21;;;;;;;;;;;27.20;50.50;;;;;;5130411;27;20329;-63
2022/08/16 10:48:48;;;;;;;;;;;27.20;50.30;;;;;;5133290;27;19920;-62
2022/08/16 10:51:14;;;;;;;;;;;27.10;50.60;;;;;;5128490;27;19934;-62
2022/08/16 10:53:41;;;;;;;;;;;27.10;50.80;;;;;;5132941;27;19924;-62
2022/08/16 10:56:11;;;;;;;;;;;27.20;50.60;;;;;;5132572;27;19919;-62
2022/08/16 10:58:40;;;;;;;;;;;27.30;50.30;;;;;;5128842;27;19919;-63
2022/08/16 11:01:08;;;;;;;;;;;27.50;50.40;;;;;;5129405;27;19919;-63
2022/08/16 11:03:35;;;;;;;;;;;27.60;50.20;;;;;;5128135;27;19919;-64
2022/08/16 11:06:01;;;;;;;;;;;27.60;49.80;;;;;;5133286;27;19933;-62
2022/08/16 11:08:28;;;;;;;;;;;27.80;49.70;;;;;;5132622;27;20018;-64
2022/08/16 11:10:55;;;;;;;;;;;27.90;49.30;;;;;;5130373;27;19919;-63
2022/08/16 11:13:24;;;;;;;;;;;28.10;48.70;;;;;;5132492;27;20330;-62
2022/08/16 11:15:53;;;;;;;;;;;28.10;48.90;;;;;;5131907;27;19950;-62
2022/08/16 11:18:21;;;;;;;;;;;28.20;48.40;;;;;;5130298;27;19976;-64
2022/08/16 11:20:48;;;;;;;;;;;28.30;48.40;;;;;;5131544;27;20173;-62
2022/08/16 11:23:15;;;;;;;;;;;28.30;47.70;;;;;;5129954;27;19927;-63
2022/08/16 11:25:42;;;;;;;;;;;28.30;47.80;;;;;;5131305;27;19940;-63
2022/08/16 11:28:09;;;;;;;;;;;28.40;47.60;;;;;;5130399;27;19925;-63
2022/08/16 11:30:36;;;;;;;;;;;28.50;47.30;;;;;;5125345;27;19923;-64
2022/08/16 11:33:04;;;;;;;;;;;28.50;47.10;;;;;;5124050;27;19958;-63
2022/08/16 11:35:32;;;;;;;;;;;28.50;47.30;;;;;;5130008;27;19964;-63
2022/08/16 11:38:00;;;;;;;;;;;28.50;47.20;;;;;;5127062;27;19919;-62
2022/08/16 11:40:28;;;;;;;;;;;28.50;47.10;;;;;;5125586;27;19920;-62
2022/08/16 11:42:55;;;;;;;;;;;28.50;46.80;;;;;;5129017;27;20026;-63
2022/08/16 11:45:22;;;;;;;;;;;28.50;46.90;;;;;;5130290;27;19919;-62
2022/08/16 11:47:49;;;;;;;;;;;28.50;46.80;;;;;;5124701;27;19919;-63
2022/08/16 11:50:17;;;;;;;;;;;28.60;46.80;;;;;;5120367;27;19919;-62
2022/08/16 11:52:44;;;;;;;;;;;28.60;46.20;;;;;;5131115;27;19919;-63
2022/08/16 11:55:11;;;;;;;;;;;28.60;46.30;;;;;;5129869;27;20244;-64
2022/08/16 11:57:38;;;;;;;;;;;28.70;46.40;;;;;;5126385;27;19923;-64
2022/08/16 12:00:06;;;;;;;;;;;28.70;46.20;;;;;;5125702;27;19919;-64
2022/08/16 12:02:38;;;;;;;;;;;28.80;45.80;;;;;;5130235;27;19923;-62
2022/08/16 12:05:05;;;;;;;;;;;28.80;45.80;;;;;;5130260;27;19934;-62
2022/08/16 12:07:34;;;;;;;;;;;28.90;46.00;;;;;;5131889;27;19923;-64
2022/08/16 12:10:01;;;;;;;;;;;29.00;45.50;;;;;;5129799;27;20006;-63
2022/08/16 12:12:27;;;;;;;;;;;28.90;45.50;;;;;;5132953;27;20284;-62
2022/08/16 12:14:54;;;;;;;;;;;29.00;44.90;;;;;;5125382;27;19919;-62
2022/08/16 12:17:21;;;;;;;;;;;29.10;45.20;;;;;;5125729;27;19919;-64
2022/08/16 12:19:48;;;;;;;;;;;29.10;45.00;;;;;;5131883;27;19920;-64
2022/08/16 12:22:15;;;;;;;;;;;29.10;45.00;;;;;;5123855;27;19925;-64
2022/08/16 12:24:43;;;;;;;;;;;29.00;45.10;;;;;;5129420;27;19923;-63
2022/08/16 12:27:10;;;;;;;;;;;29.10;44.90;;;;;;5131583;27;19919;-63
2022/08/16 12:29:37;;;;;;;;;;;29.10;44.70;;;;;;5131433;27;20292;-63
2022/08/16 12:32:04;;;;;;;;;;;29.10;44.50;;;;;;5131188;27;19919;-63
2022/08/16 12:34:30;;;;;;;;;;;29.10;44.30;;;;;;5125445;27;19919;-63
2022/08/16 12:36:58;;;;;;;;;;;29.10;44.40;;;;;;5130841;27;19923;-63
2022/08/16 12:39:25;;;;;;;;;;;29.10;44.30;;;;;;5129674;27;19923;-63
2022/08/16 12:41:53;;;;;;;;;;;29.10;43.70;;;;;;5126270;27;19919;-62
2022/08/16 12:44:19;;;;;;;;;;;29.10;43.80;;;;;;5127051;27;20324;-63
2022/08/16 12:48:56;;;;;;;;;;;29.10;43.80;;;;;;5128828;27;19919;-63
2022/08/16 12:49:32;;;;;;;;;;;29.10;43.50;;;;;;5133713;27;19924;-63
2022/08/16 12:51:59;;;;;;;;;;;29.10;43.40;;;;;;5130320;27;19919;-62
2022/08/16 12:54:26;;;;;;;;;;;29.10;43.50;;;;;;5133599;27;19920;-64
2022/08/16 12:56:54;;;;;;;;;;;29.10;43.40;;;;;;5133676;27;20380;-63
2022/08/16 12:59:21;;;;;;;;;;;29.10;43.20;;;;;;5143688;27;19919;-63
2022/08/16 13:01:48;;;;;;;;;;;29.10;43.20;;;;;;5132413;27;19919;-64
2022/08/16 13:04:15;;;;;;;;;;;29.10;43.20;;;;;;5136494;27;19919;-63
2022/08/16 13:06:43;;;;;;;;;;;29.10;43.00;;;;;;5130476;27;20536;-63
2022/08/16 13:09:22;;;;;;;;;;;29.10;42.90;;;;;;5128955;27;19919;-63
2022/08/16 13:11:58;;;;;;;;;;;29.10;43.40;;;;;;5129000;27;19919;-64
2022/08/16 13:14:28;;;;;;;;;;;29.10;43.20;;;;;;5132552;27;19919;-63
2022/08/16 13:16:55;;;;;;;;;;;29.10;43.20;;;;;;5132211;27;19972;-61
2022/08/16 13:19:21;;;;;;;;;;;29.10;43.20;;;;;;5135466;27;19927;-62
2022/08/16 13:21:48;;;;;;;;;;;29.10;43.20;;;;;;5130448;27;19926;-64
2022/08/16 13:24:15;;;;;;;;;;;29.00;43.20;;;;;;5128524;27;20329;-62
2022/08/16 13:26:42;;;;;;;;;;;29.00;43.10;;;;;;5126213;27;19926;-63
2022/08/16 13:29:09;;;;;;;;;;;29.00;43.50;;;;;;5126975;27;19938;-63
2022/08/16 13:31:37;;;;;;;;;;;29.00;43.40;;;;;;5133005;27;20415;-63
2022/08/16 13:34:04;;;;;;;;;;;29.00;43.50;;;;;;5129743;27;19923;-64
2022/08/16 13:36:30;;;;;;;;;;;28.90;43.50;;;;;;5129883;27;19942;-64
2022/08/16 13:38:58;;;;;;;;;;;28.90;43.50;;;;;;5123809;27;19927;-63
2022/08/16 13:41:25;;;;;;;;;;;28.90;44.10;;;;;;5129641;27;20261;-61
2022/08/16 13:43:52;;;;;;;;;;;28.80;43.50;;;;;;5130927;27;20427;-63
2022/08/16 13:46:19;;;;;;;;;;;28.80;43.70;;;;;;5135575;27;20299;-63
2022/08/16 13:48:47;;;;;;;;;;;28.80;43.50;;;;;;5134848;27;19926;-63
2022/08/16 13:51:14;;;;;;;;;;;28.80;43.60;;;;;;5131084;27;19927;-63
2022/08/16 13:53:41;;;;;;;;;;;28.70;43.70;;;;;;5134754;27;19926;-64
2022/08/16 13:56:08;;;;;;;;;;;28.70;43.30;;;;;;5136553;27;19920;-64
2022/08/16 13:58:35;;;;;;;;;;;28.70;43.30;;;;;;5133400;27;19945;-62
2022/08/16 14:01:02;;;;;;;;;;;28.70;42.90;;;;;;5130100;27;19925;-62
2022/08/16 14:03:28;;;;;;;;;;;28.70;43.00;;;;;;5139064;27;19919;-64
2022/08/16 14:05:57;;;;;;;;;;;28.60;43.40;;;;;;5131008;27;19919;-65
2022/08/16 14:08:24;;;;;;;;;;;28.60;43.50;;;;;;5131602;27;20391;-63
2022/08/16 14:10:51;;;;;;;;;;;28.60;43.10;;;;;;5134811;27;19969;-62
2022/08/16 14:13:18;;;;;;;;;;;28.70;43.10;;;;;;5133214;27;19947;-64
2022/08/16 14:15:45;;;;;;;;;;;28.60;43.60;;;;;;5132523;27;19920;-63
2022/08/16 14:18:12;;;;;;;;;;;28.60;43.40;;;;;;5133861;27;19924;-63
2022/08/16 14:20:39;;;;;;;;;;;28.60;43.70;;;;;;5129061;27;19926;-63
2022/08/16 14:23:07;;;;;;;;;;;28.60;43.60;;;;;;5138376;27;20014;-63
2022/08/16 14:25:34;;;;;;;;;;;28.60;43.40;;;;;;5131266;27;19930;-63